Time;durP1;ratioP1;P1;durP2;ratioP2;P2;SDS_P1;SDS_P2;PMS_P1;PMS_P2;Temp;Humidity;BMP_temperature;BMP_pressure;BME280_temperature;BME280_humidity;BME280_pressure;Samples;Min_cycle;Max_cycle;Signal;HPM_P1;HPM_P2
2022/10/15 00:00:29;;;;;;;2.15;0.93;;;12.10;99.90;;;;;;5086998;28;20040;-85
2022/10/15 00:02:54;;;;;;;1.42;1.33;;;12.10;99.90;;;;;;5060639;28;20488;-86
2022/10/15 00:05:21;;;;;;;2.22;1.85;;;12.10;99.90;;;;;;5081856;28;20064;-86
2022/10/15 00:07:47;;;;;;;1.30;1.08;;;12.10;99.90;;;;;;5088292;28;20052;-83
2022/10/15 00:10:13;;;;;;;1.52;1.42;;;12.10;99.90;;;;;;5091926;28;20040;-85
2022/10/15 00:12:40;;;;;;;0.70;0.70;;;12.10;99.90;;;;;;5091477;28;20048;-86
2022/10/15 00:15:06;;;;;;;2.13;1.75;;;12.10;99.90;;;;;;5073018;28;20089;-85
2022/10/15 00:17:33;;;;;;;0.73;0.73;;;12.10;99.90;;;;;;5099398;28;20087;-85
2022/10/15 00:19:59;;;;;;;0.47;0.47;;;12.10;99.90;;;;;;5081252;28;20051;-85
2022/10/15 00:22:25;;;;;;;2.47;0.80;;;12.10;99.90;;;;;;5073398;28;20048;-84
2022/10/15 00:24:51;;;;;;;1.27;1.23;;;12.10;99.90;;;;;;5088554;28;20416;-85
2022/10/15 00:27:16;;;;;;;2.53;2.33;;;12.10;99.90;;;;;;5090526;28;20497;-85
2022/10/15 00:29:42;;;;;;;0.30;0.30;;;12.10;99.90;;;;;;5086390;28;20039;-84
2022/10/15 00:32:08;;;;;;;0.60;0.60;;;11.70;99.90;;;;;;5090337;28;20040;-85
2022/10/15 00:34:34;;;;;;;0.40;0.40;;;12.10;99.90;;;;;;5042415;28;20113;-85
2022/10/15 00:36:59;;;;;;;1.48;1.05;;;12.10;99.90;;;;;;5075452;28;20044;-86
2022/10/15 00:39:25;;;;;;;0.95;0.85;;;12.10;99.90;;;;;;5086127;28;20044;-85
2022/10/15 00:41:51;;;;;;;1.13;1.02;;;12.10;99.90;;;;;;5059213;28;20090;-86
2022/10/15 00:44:20;;;;;;;0.60;0.60;;;12.10;99.90;;;;;;5082626;28;20048;-85
2022/10/15 00:46:49;;;;;;;0.93;0.93;;;12.20;99.90;;;;;;5088997;28;20044;-85
2022/10/15 00:49:23;;;;;;;1.15;1.05;;;12.10;99.90;;;;;;5075386;28;20425;-86
2022/10/15 00:51:55;;;;;;;2.25;1.98;;;12.20;99.90;;;;;;5081475;28;20047;-85
2022/10/15 00:54:22;;;;;;;0.85;0.50;;;12.20;99.90;;;;;;5063464;28;20104;-85
2022/10/15 00:56:49;;;;;;;1.45;1.35;;;12.20;99.90;;;;;;5071816;28;20389;-85
2022/10/15 00:59:17;;;;;;;0.75;0.75;;;12.20;99.90;;;;;;5104445;28;20039;-85
2022/10/15 01:01:43;;;;;;;0.45;0.45;;;12.20;99.90;;;;;;5089990;28;20490;-84
2022/10/15 01:04:10;;;;;;;2.20;1.92;;;12.20;99.90;;;;;;5075550;28;20050;-84
2022/10/15 01:06:36;;;;;;;1.90;1.58;;;12.10;99.90;;;;;;5088116;28;20032;-85
2022/10/15 01:09:02;;;;;;;;;;;12.20;99.90;;;;;;5074216;28;20361;-86
2022/10/15 01:11:45;;;;;;;3.78;1.02;;;12.20;99.90;;;;;;5085328;28;20424;-85
2022/10/15 01:14:47;;;;;;;2.60;1.40;;;12.20;99.90;;;;;;5090304;28;20044;-83
2022/10/15 01:17:39;;;;;;;0.60;0.60;;;12.20;99.90;;;;;;5075402;28;20036;-84
2022/10/15 01:20:20;;;;;;;1.67;1.52;;;12.20;99.90;;;;;;5079818;28;20047;-83
2022/10/15 01:22:51;;;;;;;1.13;1.00;;;12.20;99.90;;;;;;5087115;28;20039;-84
2022/10/15 01:25:50;;;;;;;0.50;0.50;;;12.20;99.90;;;;;;5088813;28;20040;-85
2022/10/15 01:28:31;;;;;;;3.20;1.25;;;12.20;99.90;;;;;;5061520;28;20040;-85
2022/10/15 01:31:34;;;;;;;1.85;1.00;;;12.10;99.90;;;;;;5092942;28;20052;-84
2022/10/15 01:34:03;;;;;;;1.05;1.05;;;12.20;99.90;;;;;;5073994;28;20101;-85
2022/10/15 01:37:24;;;;;;;1.65;0.73;;;12.20;99.90;;;;;;5082258;28;20050;-89
2022/10/15 01:40:15;;;;;;;0.85;0.85;;;12.10;99.90;;;;;;5056987;28;20041;-86
2022/10/15 01:42:58;;;;;;;1.25;1.25;;;12.10;99.90;;;;;;5087104;28;20043;-86
2022/10/15 01:45:33;;;;;;;0.40;0.40;;;12.10;99.90;;;;;;5092026;28;20036;-85
2022/10/15 01:48:04;;;;;;;1.73;1.63;;;12.10;99.90;;;;;;5074852;28;20056;-85
2022/10/15 01:50:32;;;;;;;1.17;1.17;;;12.10;99.90;;;;;;5080015;28;20094;-84
2022/10/15 01:53:01;;;;;;;1.00;1.00;;;12.10;99.90;;;;;;5094768;28;20097;-83
2022/10/15 01:55:27;;;;;;;1.08;1.08;;;12.00;99.90;;;;;;5094863;28;20469;-84
2022/10/15 01:57:56;;;;;;;1.27;1.20;;;12.10;99.90;;;;;;5080183;28;20048;-86
2022/10/15 02:00:22;;;;;;;0.93;0.93;;;12.00;99.90;;;;;;5078350;28;20071;-83
2022/10/15 02:02:48;;;;;;;1.50;1.20;;;12.10;99.90;;;;;;5092133;28;20082;-86
2022/10/15 02:05:22;;;;;;;0.80;0.80;;;12.00;99.90;;;;;;5090000;28;20477;-85
2022/10/15 02:08:12;;;;;;;1.10;1.00;;;12.10;99.90;;;;;;5060474;28;20062;-87
2022/10/15 02:11:02;;;;;;;1.75;1.65;;;12.00;99.90;;;;;;5061909;28;21339;-85
2022/10/15 02:13:43;;;;;;;0.68;0.68;;;12.10;99.90;;;;;;5081618;28;20072;-84
2022/10/15 02:16:12;;;;;;;0.50;0.50;;;12.00;99.90;;;;;;5090865;28;20040;-86
2022/10/15 02:18:50;;;;;;;0.50;0.50;;;12.00;99.90;;;;;;5073848;28;20044;-86
2022/10/15 02:21:19;;;;;;;0.70;0.65;;;12.10;99.90;;;;;;5090104;28;20070;-86
2022/10/15 02:24:06;;;;;;;0.65;0.65;;;12.00;99.90;;;;;;5089104;28;20051;-86
2022/10/15 02:26:34;;;;;;;0.80;0.80;;;12.00;99.90;;;;;;5090729;28;20728;-83
2022/10/15 02:29:01;;;;;;;1.60;1.50;;;12.00;99.90;;;;;;5073904;28;20484;-84
2022/10/15 02:31:30;;;;;;;2.60;2.40;;;12.00;99.90;;;;;;5084988;28;20047;-85
2022/10/15 02:33:59;;;;;;;0.82;0.82;;;12.00;99.90;;;;;;5066984;28;20116;-83
2022/10/15 02:36:26;;;;;;;1.40;1.38;;;12.00;99.90;;;;;;5074600;28;20054;-84
2022/10/15 02:38:55;;;;;;;1.75;0.77;;;12.00;99.90;;;;;;5073292;28;20489;-84
2022/10/15 02:41:21;;;;;;;1.90;1.17;;;12.00;99.90;;;;;;5074364;28;20442;-85
2022/10/15 02:43:50;;;;;;;0.85;0.85;;;12.00;99.90;;;;;;5083829;28;20035;-84
2022/10/15 02:46:17;;;;;;;1.27;0.65;;;12.00;99.90;;;;;;5074576;28;20504;-85
2022/10/15 02:48:43;;;;;;;1.73;1.50;;;12.00;99.90;;;;;;5034674;28;20045;-85
2022/10/15 02:51:09;;;;;;;0.65;0.65;;;12.00;99.90;;;;;;5061415;28;20051;-86
2022/10/15 02:53:34;;;;;;;0.50;0.50;;;11.90;99.90;;;;;;5050292;28;20059;-83
2022/10/15 02:56:00;;;;;;;0.85;0.85;;;12.00;99.90;;;;;;5066177;28;20036;-85
2022/10/15 02:58:28;;;;;;;0.73;0.73;;;11.90;99.90;;;;;;5077510;28;20442;-83
2022/10/15 03:00:54;;;;;;;0.30;0.30;;;11.90;99.90;;;;;;5073932;28;20072;-85
2022/10/15 03:03:19;;;;;;;0.63;0.63;;;11.90;99.90;;;;;;5097431;28;20078;-83
2022/10/15 03:05:45;;;;;;;3.10;0.98;;;11.90;99.90;;;;;;5072544;28;20051;-84
2022/10/15 03:08:11;;;;;;;0.85;0.75;;;11.90;99.90;;;;;;5059736;28;20032;-86
2022/10/15 03:10:36;;;;;;;1.50;1.20;;;11.80;99.90;;;;;;5064538;28;20036;-85
2022/10/15 03:13:03;;;;;;;0.70;0.70;;;11.80;99.90;;;;;;5055258;28;20039;-83
2022/10/15 03:15:29;;;;;;;0.63;0.63;;;11.80;99.90;;;;;;5092117;28;20552;-85
2022/10/15 03:17:54;;;;;;;1.23;1.15;;;11.70;99.90;;;;;;5077349;28;20181;-84
2022/10/15 03:20:20;;;;;;;1.85;1.75;;;11.60;99.90;;;;;;5075917;28;20032;-85
2022/10/15 03:22:46;;;;;;;1.13;0.80;;;11.70;99.90;;;;;;5091077;28;20071;-84
2022/10/15 03:25:12;;;;;;;1.02;0.88;;;11.70;99.90;;;;;;5053250;28;20124;-85
2022/10/15 03:27:37;;;;;;;3.28;1.55;;;11.80;99.90;;;;;;5057427;28;20040;-82
2022/10/15 03:30:04;;;;;;;1.75;0.98;;;11.80;99.90;;;;;;5062454;28;20044;-84
2022/10/15 03:32:29;;;;;;;0.75;0.75;;;11.80;99.90;;;;;;5056811;28;20475;-86
2022/10/15 03:34:55;;;;;;;1.33;1.23;;;11.80;99.90;;;;;;5055660;28;20087;-86
2022/10/15 03:37:21;;;;;;;0.88;0.55;;;11.80;99.90;;;;;;5071431;28;20123;-85
2022/10/15 03:39:46;;;;;;;0.95;0.95;;;11.80;99.90;;;;;;5089113;28;20439;-85
2022/10/15 03:42:12;;;;;;;0.77;0.77;;;11.80;99.90;;;;;;5055394;28;20071;-85
2022/10/15 03:44:38;;;;;;;0.55;0.55;;;11.80;99.90;;;;;;5071911;28;20473;-84
2022/10/15 03:47:03;;;;;;;0.30;0.30;;;11.80;99.90;;;;;;5088018;28;20052;-87
2022/10/15 03:49:29;;;;;;;1.20;1.10;;;11.80;99.90;;;;;;5094934;28;20134;-83
2022/10/15 03:51:55;;;;;;;0.40;0.40;;;11.80;99.90;;;;;;5067783;28;20444;-85
2022/10/15 03:54:20;;;;;;;0.63;0.63;;;11.80;99.90;;;;;;5074245;28;20094;-86
2022/10/15 03:56:46;;;;;;;1.15;1.15;;;11.80;99.90;;;;;;5051505;28;20059;-84
2022/10/15 03:59:12;;;;;;;0.50;0.50;;;11.80;99.90;;;;;;5039111;28;20036;-85
2022/10/15 04:01:38;;;;;;;1.35;1.25;;;11.80;99.90;;;;;;5090808;28;20482;-86
2022/10/15 04:04:05;;;;;;;0.43;0.43;;;11.80;99.90;;;;;;5076801;28;20129;-85
2022/10/15 04:06:33;;;;;;;0.65;0.65;;;11.70;99.90;;;;;;5083927;28;20044;-82
2022/10/15 04:08:59;;;;;;;4.30;1.35;;;11.70;99.90;;;;;;5074807;28;20263;-82
2022/10/15 04:11:24;;;;;;;;;;;11.80;99.90;;;;;;5076203;28;20150;-84
2022/10/15 04:13:50;;;;;;;1.00;0.82;;;11.80;99.90;;;;;;5092217;28;20003;-87
2022/10/15 04:16:16;;;;;;;1.20;1.20;;;11.80;99.90;;;;;;5075676;28;20130;-84
2022/10/15 04:18:42;;;;;;;2.72;2.53;;;11.80;99.90;;;;;;5084015;28;20561;-87
2022/10/15 04:21:08;;;;;;;2.47;1.92;;;11.80;99.90;;;;;;5094987;28;20036;-83
2022/10/15 04:23:34;;;;;;;1.50;1.02;;;11.80;99.90;;;;;;5075985;28;20497;-83
2022/10/15 04:26:00;;;;;;;0.40;0.40;;;11.80;99.90;;;;;;5071017;28;20036;-82
2022/10/15 04:28:27;;;;;;;0.95;0.90;;;11.80;99.90;;;;;;5073963;28;20044;-85
2022/10/15 04:30:59;;;;;;;0.40;0.40;;;11.90;99.90;;;;;;5077019;28;20048;-85
2022/10/15 04:33:26;;;;;;;0.70;0.70;;;11.80;99.90;;;;;;5076488;28;20112;-82
2022/10/15 04:36:06;;;;;;;0.60;0.60;;;11.80;99.90;;;;;;5073295;28;20036;-84
2022/10/15 04:38:31;;;;;;;1.77;1.60;;;11.80;99.90;;;;;;5090544;28;20036;-82
2022/10/15 04:41:05;;;;;;;0.32;0.32;;;11.80;99.90;;;;;;5068895;28;20033;-84
2022/10/15 04:43:32;;;;;;;0.75;0.75;;;11.90;99.90;;;;;;5090223;28;20048;-84
2022/10/15 04:45:59;;;;;;;2.70;1.58;;;11.90;99.90;;;;;;5076178;28;20040;-83
2022/10/15 04:48:28;;;;;;;0.40;0.40;;;11.90;99.90;;;;;;5074533;28;20041;-82
2022/10/15 04:50:54;;;;;;;0.90;0.35;;;11.90;99.90;;;;;;5068958;28;20044;-82
2022/10/15 04:53:20;;;;;;;0.65;0.65;;;11.90;99.90;;;;;;5077539;28;20037;-83
2022/10/15 04:55:46;;;;;;;;;;;11.80;99.90;;;;;;5074382;28;20123;-82
2022/10/15 04:58:12;;;;;;;0.65;0.65;;;11.80;99.90;;;;;;5078308;28;20023;-81
2022/10/15 05:00:38;;;;;;;0.38;0.38;;;11.80;99.90;;;;;;5067494;28;20036;-83
2022/10/15 05:03:04;;;;;;;;;;;11.80;99.90;;;;;;5090558;28;20040;-82
2022/10/15 05:05:30;;;;;;;0.75;0.75;;;11.80;99.90;;;;;;5091449;28;19916;-82
2022/10/15 05:08:02;;;;;;;1.17;1.13;;;11.80;99.90;;;;;;5090617;28;20048;-82
2022/10/15 05:10:28;;;;;;;1.02;1.02;;;11.80;99.90;;;;;;5082083;28;20089;-83
2022/10/15 05:12:55;;;;;;;1.20;0.85;;;11.80;99.90;;;;;;5075455;28;20043;-83
2022/10/15 05:15:20;;;;;;;0.60;0.60;;;11.80;99.90;;;;;;5092730;28;20032;-83
2022/10/15 05:17:46;;;;;;;0.70;0.70;;;11.70;99.90;;;;;;5058393;28;20615;-82
2022/10/15 05:20:12;;;;;;;1.27;1.17;;;11.70;99.90;;;;;;5070215;28;20533;-83
2022/10/15 05:22:37;;;;;;;0.85;0.85;;;11.70;99.90;;;;;;5067610;28;20123;-83
2022/10/15 05:25:03;;;;;;;1.60;1.50;;;11.70;99.90;;;;;;5066403;28;20051;-82
2022/10/15 05:27:29;;;;;;;9.23;0.93;;;11.70;99.90;;;;;;5074635;28;20048;-81
2022/10/15 05:29:54;;;;;;;0.50;0.50;;;11.70;99.90;;;;;;5081411;28;20044;-82
2022/10/15 05:32:20;;;;;;;0.70;0.70;;;11.60;99.90;;;;;;5090064;28;20480;-82
2022/10/15 05:34:46;;;;;;;3.33;1.30;;;11.60;99.90;;;;;;5091083;28;20050;-83
2022/10/15 05:37:11;;;;;;;0.75;0.75;;;11.60;99.90;;;;;;5090328;28;20128;-82
2022/10/15 05:39:37;;;;;;;0.40;0.40;;;11.60;99.90;;;;;;5062527;28;20097;-83
2022/10/15 05:42:03;;;;;;;1.98;1.80;;;11.60;99.90;;;;;;5084191;28;20040;-82
2022/10/15 05:44:28;;;;;;;0.85;0.82;;;11.60;99.90;;;;;;5092805;28;20159;-82
2022/10/15 05:46:54;;;;;;;1.35;0.85;;;11.60;99.90;;;;;;5085673;28;20075;-82
2022/10/15 05:49:20;;;;;;;0.98;0.88;;;11.60;99.90;;;;;;5073778;28;20127;-82
2022/10/15 05:51:45;;;;;;;0.90;0.90;;;11.60;99.90;;;;;;5069919;28;20052;-82
2022/10/15 05:54:11;;;;;;;1.15;1.05;;;11.60;99.90;;;;;;5066508;28;20484;-83
2022/10/15 05:56:38;;;;;;;1.20;1.20;;;11.60;99.90;;;;;;5069617;28;20044;-81
2022/10/15 05:59:04;;;;;;;2.78;1.05;;;11.60;99.90;;;;;;5091439;28;20389;-81
2022/10/15 06:01:29;;;;;;;1.73;1.33;;;11.70;99.90;;;;;;5061933;28;20047;-84
2022/10/15 06:03:55;;;;;;;0.47;0.47;;;11.60;99.90;;;;;;5083284;28;20461;-81
2022/10/15 06:06:23;;;;;;;3.05;2.88;;;11.60;99.90;;;;;;5056771;28;20036;-82
2022/10/15 06:08:49;;;;;;;0.77;0.68;;;11.70;99.90;;;;;;5082613;28;20457;-82
2022/10/15 06:11:16;;;;;;;1.00;0.90;;;11.70;99.90;;;;;;5088430;28;20040;-82
2022/10/15 06:13:43;;;;;;;3.30;1.70;;;11.70;99.90;;;;;;5090309;28;20032;-82
2022/10/15 06:16:10;;;;;;;2.03;1.90;;;11.80;99.90;;;;;;5073728;28;20093;-84
2022/10/15 06:18:37;;;;;;;2.15;2.05;;;11.70;99.90;;;;;;5066252;28;20393;-82
2022/10/15 06:21:03;;;;;;;0.95;0.95;;;11.80;99.90;;;;;;5090537;28;20074;-83
2022/10/15 06:23:29;;;;;;;1.27;1.20;;;11.80;99.90;;;;;;5088506;28;20043;-83
2022/10/15 06:25:55;;;;;;;1.88;0.77;;;11.80;99.90;;;;;;5089494;28;20047;-81
2022/10/15 06:28:21;;;;;;;1.35;0.85;;;11.80;99.90;;;;;;5070149;28;20036;-83
2022/10/15 06:30:46;;;;;;;2.50;1.77;;;11.80;99.90;;;;;;5072475;28;20105;-83
2022/10/15 06:33:14;;;;;;;2.20;2.00;;;11.90;99.90;;;;;;5071649;28;20043;-84
2022/10/15 06:35:40;;;;;;;1.70;1.60;;;11.90;99.90;;;;;;5081022;28;20052;-83
2022/10/15 06:38:06;;;;;;;2.45;2.33;;;11.90;99.90;;;;;;5084454;28;20051;-82
2022/10/15 06:40:32;;;;;;;0.82;0.82;;;11.90;99.90;;;;;;5077222;28;20044;-82
2022/10/15 06:43:09;;;;;;;4.20;1.40;;;11.90;99.90;;;;;;5071270;28;20136;-83
2022/10/15 06:45:37;;;;;;;1.80;1.70;;;11.90;99.90;;;;;;5088331;28;20036;-82
2022/10/15 06:48:04;;;;;;;0.60;0.60;;;11.90;99.90;;;;;;5079021;28;20163;-83
2022/10/15 06:50:32;;;;;;;1.08;1.05;;;12.00;99.90;;;;;;5078850;28;20489;-83
2022/10/15 06:52:57;;;;;;;2.83;2.25;;;12.00;99.90;;;;;;5077037;28;20504;-83
2022/10/15 06:55:23;;;;;;;1.48;1.38;;;12.00;99.90;;;;;;5069110;28;20109;-83
2022/10/15 06:57:49;;;;;;;0.55;0.55;;;12.00;99.90;;;;;;5087217;28;20127;-83
2022/10/15 07:00:15;;;;;;;1.58;1.27;;;12.00;99.90;;;;;;5098131;28;20038;-82
2022/10/15 07:02:41;;;;;;;1.02;0.95;;;12.10;99.90;;;;;;5064668;28;20430;-83
2022/10/15 07:05:07;;;;;;;1.77;1.70;;;12.10;99.90;;;;;;5071746;28;20036;-82
2022/10/15 07:07:33;;;;;;;2.28;2.08;;;12.10;99.90;;;;;;5096210;28;20051;-82
2022/10/15 07:09:59;;;;;;;3.03;1.17;;;12.10;99.90;;;;;;5055746;28;20059;-83
2022/10/15 07:12:24;;;;;;;0.52;0.52;;;12.10;99.90;;;;;;5088241;28;20073;-82
2022/10/15 07:14:50;;;;;;;2.60;2.40;;;12.10;99.90;;;;;;5066263;28;20036;-83
2022/10/15 07:17:16;;;;;;;1.85;1.75;;;12.10;99.90;;;;;;5055152;28;20041;-82
2022/10/15 07:19:42;;;;;;;1.70;1.60;;;12.20;99.90;;;;;;5070804;28;20032;-82
2022/10/15 07:22:09;;;;;;;1.65;1.27;;;12.20;99.90;;;;;;5098142;28;20075;-82
2022/10/15 07:24:34;;;;;;;;;;;12.30;99.90;;;;;;5067808;28;20122;-83
2022/10/15 07:27:00;;;;;;;1.08;0.90;;;12.30;99.90;;;;;;5085295;28;20369;-82
2022/10/15 07:29:26;;;;;;;0.98;0.98;;;12.30;99.90;;;;;;5082482;28;20043;-82
2022/10/15 07:31:52;;;;;;;0.85;0.85;;;12.30;99.90;;;;;;5073293;28;20101;-82
2022/10/15 07:34:17;;;;;;;1.75;1.65;;;12.40;99.90;;;;;;5085397;28;20048;-81
2022/10/15 07:36:43;;;;;;;1.10;1.10;;;12.40;99.90;;;;;;5087142;28;20044;-82
2022/10/15 07:39:10;;;;;;;0.75;0.75;;;12.40;99.90;;;;;;5078851;28;20044;-82
2022/10/15 07:41:35;;;;;;;2.97;2.78;;;12.50;99.90;;;;;;5062504;28;20060;-83
2022/10/15 07:44:01;;;;;;;4.03;2.63;;;12.50;99.90;;;;;;5085969;28;20170;-82
2022/10/15 07:46:27;;;;;;;1.55;1.05;;;12.50;99.90;;;;;;5071963;28;20040;-82
2022/10/15 07:48:53;;;;;;;1.10;1.10;;;12.50;99.90;;;;;;5053467;28;20064;-81
2022/10/15 07:51:19;;;;;;;3.92;1.70;;;12.50;99.90;;;;;;5080656;28;20055;-82
2022/10/15 07:53:46;;;;;;;2.33;2.03;;;12.60;99.90;;;;;;5073958;28;20047;-82
2022/10/15 07:56:16;;;;;;;1.27;1.15;;;12.60;99.90;;;;;;5092405;28;20076;-83
2022/10/15 07:58:42;;;;;;;0.65;0.65;;;12.70;99.90;;;;;;5083115;28;20059;-81
2022/10/15 08:01:10;;;;;;;3.03;1.88;;;12.70;99.90;;;;;;5067355;28;20039;-83
2022/10/15 08:03:36;;;;;;;1.52;1.42;;;12.80;99.90;;;;;;5073241;28;20040;-82
2022/10/15 08:06:05;;;;;;;1.30;0.68;;;12.90;99.90;;;;;;5070614;28;20040;-82
2022/10/15 08:08:30;;;;;;;1.90;1.52;;;13.00;99.90;;;;;;5066314;28;20135;-82
2022/10/15 08:10:56;;;;;;;2.55;2.42;;;13.00;99.90;;;;;;5085016;28;20159;-83
2022/10/15 08:13:23;;;;;;;1.67;1.58;;;13.00;99.90;;;;;;5093535;28;20050;-82
2022/10/15 08:15:49;;;;;;;0.90;0.90;;;13.10;99.90;;;;;;5084237;28;20413;-82
2022/10/15 08:18:14;;;;;;;1.67;1.58;;;13.10;99.90;;;;;;5085929;28;20035;-83
2022/10/15 08:20:41;;;;;;;0.77;0.77;;;13.10;99.90;;;;;;5069032;28;20047;-82
2022/10/15 08:23:14;;;;;;;2.33;1.00;;;13.10;99.90;;;;;;5070408;28;20115;-83
2022/10/15 08:25:40;;;;;;;1.63;1.58;;;13.20;99.90;;;;;;5096640;28;20036;-83
2022/10/15 08:28:09;;;;;;;0.73;0.73;;;13.20;99.90;;;;;;5093986;28;20120;-83
2022/10/15 08:30:36;;;;;;;1.75;1.65;;;13.30;99.90;;;;;;5083706;28;20119;-83
2022/10/15 08:33:02;;;;;;;2.08;1.42;;;13.30;99.90;;;;;;5080744;28;20079;-83
2022/10/15 08:35:28;;;;;;;2.30;1.80;;;13.40;99.90;;;;;;5087734;28;20052;-82
2022/10/15 08:37:54;;;;;;;2.40;0.95;;;13.50;99.90;;;;;;5071407;28;20114;-83
2022/10/15 08:40:23;;;;;;;;;;;13.60;99.90;;;;;;5082138;28;20047;-82
2022/10/15 08:42:50;;;;;;;3.95;2.47;;;13.70;99.90;;;;;;5090337;28;19915;-84
2022/10/15 08:45:26;;;;;;;1.23;1.15;;;13.70;99.90;;;;;;5085221;28;20071;-83
2022/10/15 08:47:58;;;;;;;2.07;1.77;;;13.80;99.90;;;;;;5095843;28;20050;-84
2022/10/15 08:51:03;;;;;;;2.90;1.85;;;13.90;99.90;;;;;;5097195;28;20285;-82
2022/10/15 08:53:32;;;;;;;0.93;0.93;;;14.00;99.90;;;;;;5075653;28;20127;-82
2022/10/15 08:56:04;;;;;;;3.00;2.55;;;14.00;99.90;;;;;;5083811;28;20098;-86
2022/10/15 08:58:44;;;;;;;3.63;1.88;;;14.00;99.90;;;;;;5091035;28;20151;-88
2022/10/15 09:01:44;;;;;;;6.90;2.83;;;14.10;99.90;;;;;;5071596;28;20035;-86
2022/10/15 09:04:20;;;;;;;0.50;0.50;;;14.20;99.90;;;;;;5052718;28;20097;-88
2022/10/15 09:06:50;;;;;;;1.33;1.27;;;14.30;99.90;;;;;;5095253;28;20050;-87
2022/10/15 09:09:21;;;;;;;1.42;1.33;;;14.30;99.90;;;;;;5088119;28;21162;-87
2022/10/15 09:12:05;;;;;;;1.55;1.45;;;14.50;99.90;;;;;;5084723;28;20483;-87
2022/10/15 09:14:37;;;;;;;0.90;0.90;;;14.50;99.90;;;;;;5074398;28;20053;-87
2022/10/15 09:17:13;;;;;;;1.48;1.40;;;14.50;99.90;;;;;;5074205;28;20041;-87
2022/10/15 09:19:41;;;;;;;2.30;2.15;;;14.50;99.90;;;;;;5071934;28;20119;-86
2022/10/15 09:22:13;;;;;;;2.17;1.10;;;14.50;99.90;;;;;;5089161;28;20043;-86
2022/10/15 09:24:38;;;;;;;1.63;1.52;;;14.50;99.90;;;;;;5092318;28;20044;-86
2022/10/15 09:27:07;;;;;;;4.47;3.95;;;14.40;99.90;;;;;;5072278;28;20040;-87
2022/10/15 09:30:13;;;;;;;2.75;2.40;;;14.40;99.90;;;;;;5080168;28;20048;-86
2022/10/15 09:32:50;;;;;;;1.38;1.27;;;14.40;99.90;;;;;;5059061;28;20056;-87
2022/10/15 09:35:24;;;;;;;1.25;1.25;;;14.50;99.90;;;;;;5082245;28;20524;-85
2022/10/15 09:37:57;;;;;;;4.30;1.58;;;14.50;99.90;;;;;;5079462;28;20045;-87
2022/10/15 09:40:33;;;;;;;3.80;2.67;;;14.50;99.90;;;;;;5081252;28;20061;-87
2022/10/15 09:43:00;;;;;;;;;;;14.50;99.90;;;;;;5086127;28;20548;-86
2022/10/15 09:45:26;;;;;;;3.22;2.70;;;14.30;99.90;;;;;;5087413;28;19973;-86
2022/10/15 09:47:55;;;;;;;;;;;14.30;99.90;;;;;;5083163;28;20103;-87
2022/10/15 09:50:21;;;;;;;4.32;2.78;;;14.20;99.90;;;;;;5077063;28;19923;-87
2022/10/15 09:53:11;;;;;;;2.40;2.20;;;14.20;99.90;;;;;;5083481;28;20040;-85
2022/10/15 09:56:18;;;;;;;0.90;0.90;;;14.10;99.90;;;;;;5088726;28;20048;-87
2022/10/15 09:58:49;;;;;;;0.98;0.98;;;14.00;99.90;;;;;;5037308;28;20145;-85
2022/10/15 10:01:24;;;;;;;0.57;0.57;;;13.90;99.90;;;;;;5073395;28;20081;-87
2022/10/15 10:03:53;;;;;;;0.80;0.80;;;13.80;99.90;;;;;;5073943;28;20453;-86
2022/10/15 10:06:20;;;;;;;0.73;0.73;;;13.70;99.90;;;;;;5097669;28;20039;-87
2022/10/15 10:08:56;;;;;;;0.70;0.70;;;13.70;99.90;;;;;;5057339;28;20040;-87
2022/10/15 10:11:24;;;;;;;1.37;1.27;;;13.60;99.90;;;;;;5071740;28;20044;-88
2022/10/15 10:13:57;;;;;;;1.75;1.45;;;13.60;99.90;;;;;;5088025;28;20282;-88
2022/10/15 10:16:24;;;;;;;2.28;1.13;;;13.60;99.90;;;;;;5079233;28;20082;-85
2022/10/15 10:19:03;;;;;;;0.82;0.60;;;13.50;99.90;;;;;;5082302;28;20408;-87
2022/10/15 10:21:36;;;;;;;1.13;1.08;;;13.60;99.90;;;;;;5091516;28;20036;-85
2022/10/15 10:24:24;;;;;;;0.73;0.73;;;13.50;99.90;;;;;;5089172;28;20766;-86
2022/10/15 10:26:50;;;;;;;3.90;2.65;;;13.50;99.90;;;;;;5093776;28;20103;-86
2022/10/15 10:29:19;;;;;;;3.38;3.15;;;13.50;99.90;;;;;;5048022;28;20128;-87
2022/10/15 10:31:49;;;;;;;2.50;2.03;;;13.50;99.90;;;;;;5092989;28;20048;-87
2022/10/15 10:34:29;;;;;;;0.82;0.82;;;13.50;99.90;;;;;;5068089;28;20067;-85
2022/10/15 10:36:55;;;;;;;2.08;1.85;;;13.50;99.90;;;;;;5066120;28;20495;-87
2022/10/15 10:39:31;;;;;;;2.03;1.35;;;13.60;99.90;;;;;;5078044;28;20375;-87
2022/10/15 10:41:59;;;;;;;0.30;0.30;;;13.70;99.90;;;;;;5075920;28;20123;-87
2022/10/15 10:44:39;;;;;;;1.48;1.40;;;13.90;99.90;;;;;;5084331;28;20327;-86
2022/10/15 10:47:34;;;;;;;3.30;1.35;;;14.00;99.90;;;;;;5066234;28;20048;-87
2022/10/15 10:50:00;;;;;;;3.58;1.00;;;14.00;99.90;;;;;;5054024;28;20040;-87
2022/10/15 10:52:27;;;;;;;3.67;3.40;;;14.00;99.90;;;;;;5081851;28;20029;-87
2022/10/15 10:55:19;;;;;;;1.52;1.40;;;14.10;99.90;;;;;;5084618;28;20026;-87
2022/10/15 10:58:00;;;;;;;3.72;0.98;;;14.20;99.90;;;;;;5082358;28;20044;-88
2022/10/15 11:00:39;;;;;;;0.73;0.63;;;14.50;99.90;;;;;;5075092;28;20123;-87
2022/10/15 11:03:47;;;;;;;4.60;0.55;;;14.80;99.90;;;;;;5084194;28;20039;-87
2022/10/15 11:06:13;;;;;;;1.45;1.35;;;14.90;99.90;;;;;;5061616;28;20059;-84
2022/10/15 11:08:59;;;;;;;1.40;1.35;;;14.80;99.90;;;;;;5076611;28;20043;-86
2022/10/15 11:11:30;;;;;;;1.17;1.17;;;14.70;99.90;;;;;;5100989;28;20054;-86
2022/10/15 11:14:22;;;;;;;1.92;1.83;;;14.70;99.90;;;;;;5096744;28;20043;-86
2022/10/15 11:16:53;;;;;;;1.17;1.00;;;14.60;99.90;;;;;;5090165;28;20070;-86
2022/10/15 11:19:46;;;;;;;1.08;1.08;;;14.60;99.90;;;;;;5091346;28;20044;-87
2022/10/15 11:22:39;;;;;;;1.35;1.25;;;14.70;99.90;;;;;;5089763;28;20032;-87
2022/10/15 11:25:21;;;;;;;2.35;2.15;;;14.70;99.90;;;;;;5083120;28;20127;-87
2022/10/15 11:28:07;;;;;;;0.63;0.63;;;14.70;99.90;;;;;;5070773;28;20161;-87
2022/10/15 11:30:49;;;;;;;0.80;0.40;;;14.70;99.90;;;;;;5051861;28;20461;-87
2022/10/15 11:33:45;;;;;;;2.25;2.13;;;14.70;99.90;;;;;;5075826;28;20423;-86
2022/10/15 11:36:30;;;;;;;1.17;1.15;;;14.80;99.90;;;;;;5076970;28;20410;-87
2022/10/15 11:39:06;;;;;;;0.50;0.50;;;14.90;99.90;;;;;;5089993;28;20063;-86
2022/10/15 11:42:00;;;;;;;5.20;2.72;;;15.00;99.90;;;;;;5063523;28;20040;-87
2022/10/15 11:44:38;;;;;;;1.13;0.98;;;15.10;99.90;;;;;;5084028;28;20075;-87
2022/10/15 11:47:07;;;;;;;1.23;0.52;;;15.10;99.90;;;;;;5086096;28;20481;-87
2022/10/15 11:49:50;;;;;;;0.45;0.45;;;15.20;99.90;;;;;;5067234;28;20516;-88
2022/10/15 11:52:46;;;;;;;1.10;0.90;;;15.30;99.90;;;;;;5064290;28;20043;-86
2022/10/15 11:55:31;;;;;;;0.35;0.35;;;15.30;99.90;;;;;;5068691;28;20042;-86
2022/10/15 11:58:01;;;;;;;0.60;0.60;;;15.40;99.90;;;;;;5074313;28;20048;-87
2022/10/15 12:00:36;;;;;;;0.40;0.40;;;15.50;99.90;;;;;;5062480;28;20041;-86
2022/10/15 12:03:25;;;;;;;1.50;1.40;;;15.60;99.90;;;;;;5079679;28;20093;-86
2022/10/15 12:06:00;;;;;;;1.88;1.77;;;15.70;99.90;;;;;;5085448;28;20066;-87
2022/10/15 12:08:31;;;;;;;1.55;1.00;;;15.60;99.90;;;;;;5087180;28;20121;-86
2022/10/15 12:11:17;;;;;;;1.30;1.25;;;15.70;99.90;;;;;;5089874;28;20489;-86
2022/10/15 12:14:10;;;;;;;0.68;0.68;;;15.80;99.90;;;;;;5076103;28;20062;-87
2022/10/15 12:16:43;;;;;;;1.65;1.30;;;15.90;99.90;;;;;;5093471;28;20115;-86
2022/10/15 12:19:18;;;;;;;1.08;1.08;;;15.90;99.90;;;;;;5060242;28;20040;-87
2022/10/15 12:21:53;;;;;;;0.30;0.30;;;15.80;99.90;;;;;;5091762;28;20040;-86
2022/10/15 12:24:40;;;;;;;1.05;0.95;;;15.70;99.90;;;;;;5067682;28;20157;-86
2022/10/15 12:27:18;;;;;;;1.20;1.13;;;15.60;99.90;;;;;;5087821;28;20067;-88
2022/10/15 12:30:04;;;;;;;0.45;0.45;;;15.50;99.90;;;;;;5069711;28;20040;-86
2022/10/15 12:32:45;;;;;;;1.17;1.17;;;15.40;99.90;;;;;;5073703;28;20877;-87
2022/10/15 12:35:15;;;;;;;0.88;0.88;;;15.40;99.90;;;;;;5071369;28;20055;-85
2022/10/15 12:37:42;;;;;;;1.15;1.13;;;15.30;99.90;;;;;;5069348;28;20040;-86
2022/10/15 12:40:30;;;;;;;0.65;0.63;;;15.40;99.90;;;;;;5087512;28;20047;-87
2022/10/15 12:43:00;;;;;;;1.38;1.23;;;15.40;99.90;;;;;;5088155;28;20047;-88
2022/10/15 12:45:36;;;;;;;0.90;0.90;;;15.40;99.90;;;;;;5082350;28;20036;-85
2022/10/15 12:48:04;;;;;;;1.65;1.55;;;15.50;99.90;;;;;;5090678;28;20051;-83
2022/10/15 12:50:33;;;;;;;4.43;1.67;;;15.50;99.90;;;;;;5086657;28;20777;-84
2022/10/15 12:53:01;;;;;;;1.67;1.33;;;15.40;99.90;;;;;;5084507;28;20701;-81
2022/10/15 12:55:34;;;;;;;0.40;0.40;;;15.40;99.90;;;;;;5076122;28;20484;-82
2022/10/15 12:58:22;;;;;;;1.17;1.02;;;15.40;99.90;;;;;;5078332;28;20040;-83
2022/10/15 13:00:47;;;;;;;0.52;0.52;;;15.40;99.90;;;;;;5087574;28;20044;-83
2022/10/15 13:03:22;;;;;;;1.30;1.27;;;15.30;99.90;;;;;;5061534;28;20036;-84
2022/10/15 13:05:48;;;;;;;1.08;1.05;;;15.20;99.90;;;;;;5087244;28;20040;-83
2022/10/15 13:08:18;;;;;;;;;;;15.20;99.90;;;;;;5082504;28;20469;-82